Airfield :







YOU CAN JOIN US ON...

 
LOGIN :

Register | Disclaimer

   EN    FR    IT 

 









Legend :    VFR   Marginal VFR   IFR   Intensive IFR   Very Intensive IFR
Visi :
Ceiling :
>= 8 km
>= 3000ft
5 to 8 km
1000 to 3000 ft
1500m to 5 km
500 to 1000 ft
800 to 1500m
200 to 500 ft
< 800m
< 200 ft
Symbols :   Thunderstorms  Fog  Heavy snow  Heavy precipitations  Wind > 20 kt






- Airport Elevation : 285 ft
- IATA code : ALB


KALB - Albany International

CURRENT METAR :
  • 161251Z 23010KT 10SM FEW021 SCT028 SCT250 26/19 A2982 RMK AO2 SLP095 T02610194

EXPIRED METARs :
  • 161151Z 22004KT 10SM FEW018 FEW032 SCT250 25/21 A2981 RMK AO2 SLP092 60002 70003 T02500206 10250 20222 50010
  • 161125Z 19005KT 10SM FEW021 FEW032 FEW250 24/20 A2982 RMK AO2 T02390200
  • 161051Z 17003KT 10SM BKN023 BKN031 BKN250 23/20 A2982 RMK AO2 SLP095 T02330200
  • 160951Z 25005KT 10SM SCT024 SCT060 BKN140 BKN250 23/20 A2980 RMK AO2 SLP088 T02280200
  • 160851Z 19005KT 10SM OVC026 23/21 A2978 RMK AO2 RAE40 SLP082 P0001 60002 T02280206 53012
  • 160840Z 16005KT 10SM BKN027 OVC038 23/21 A2977 RMK AO2 RAE40 P0001 T02280206

TAF KALB
Valid from the 16 at 12:00 until the 17 at 12:00 UTC


161129Z 1612/1712 22008KT P6SM FEW025 FEW250
FM161800 19012G22KT P6SM SCT070
FM162100 19010KT 4SM -TSRA BR BKN060CB
PROB30 1621/1623 VRB20G40KT 1SM +TSRA BR SCT025 OVC040CB
FM162300 23007KT P6SM FEW025 SCT050
FM170300 23005KT P6SM FEW020 SCT250
KZBW FIR / North America



MET'MAP, your aeronautical weather chart ! - Copyright ORBIFLY December 2007 - Disclaimer

ORBIFLY MET'MAP TEAM :

Programming & Development : Alexandra Zaïnal
Original concept : Baudouin d'Aumeries
Technical & hardware support : Manuel Goepfert
Assistance : Marc-Olivier Méhu




SOURCES & CREDITS :

   NOAA